sensor_id;sensor_type;location;lat;lon;timestamp;temperature;humidity
35381;DHT22;21486;51.916;8.378;2023-05-28T00:00:50;12.40;99.40
35381;DHT22;21486;51.916;8.378;2023-05-28T00:03:15;12.40;99.70
35381;DHT22;21486;51.916;8.378;2023-05-28T00:05:43;12.30;99.70
35381;DHT22;21486;51.916;8.378;2023-05-28T00:08:08;12.30;99.90
35381;DHT22;21486;51.916;8.378;2023-05-28T00:10:34;12.30;99.90
35381;DHT22;21486;51.916;8.378;2023-05-28T00:13:00;12.20;99.90
35381;DHT22;21486;51.916;8.378;2023-05-28T00:15:25;12.30;99.90
35381;DHT22;21486;51.916;8.378;2023-05-28T00:17:51;12.20;99.90
35381;DHT22;21486;51.916;8.378;2023-05-28T00:20:19;12.10;99.90
35381;DHT22;21486;51.916;8.378;2023-05-28T00:22:45;12.10;99.90
35381;DHT22;21486;51.916;8.378;2023-05-28T00:25:11;12.10;99.90
35381;DHT22;21486;51.916;8.378;2023-05-28T00:27:36;12.10;99.90
35381;DHT22;21486;51.916;8.378;2023-05-28T00:33:02;12.00;99.90
35381;DHT22;21486;51.916;8.378;2023-05-28T00:35:27;12.00;99.90
35381;DHT22;21486;51.916;8.378;2023-05-28T00:37:53;12.00;99.90
35381;DHT22;21486;51.916;8.378;2023-05-28T00:40:19;12.00;99.90
35381;DHT22;21486;51.916;8.378;2023-05-28T00:42:44;12.00;99.90
35381;DHT22;21486;51.916;8.378;2023-05-28T00:45:11;11.90;99.90
35381;DHT22;21486;51.916;8.378;2023-05-28T00:47:41;11.90;99.90
35381;DHT22;21486;51.916;8.378;2023-05-28T00:50:08;11.80;99.90
35381;DHT22;21486;51.916;8.378;2023-05-28T00:52:35;11.80;99.90
35381;DHT22;21486;51.916;8.378;2023-05-28T00:55:02;11.80;99.90
35381;DHT22;21486;51.916;8.378;2023-05-28T00:57:27;11.80;99.90
35381;DHT22;21486;51.916;8.378;2023-05-28T00:59:53;11.70;99.90
35381;DHT22;21486;51.916;8.378;2023-05-28T01:02:22;11.70;99.90
35381;DHT22;21486;51.916;8.378;2023-05-28T01:04:48;11.70;99.90
35381;DHT22;21486;51.916;8.378;2023-05-28T01:07:14;11.70;99.90
35381;DHT22;21486;51.916;8.378;2023-05-28T01:09:40;11.70;99.90
35381;DHT22;21486;51.916;8.378;2023-05-28T01:12:06;11.70;99.90
35381;DHT22;21486;51.916;8.378;2023-05-28T01:14:32;11.70;99.90
35381;DHT22;21486;51.916;8.378;2023-05-28T01:16:59;11.70;99.90
35381;DHT22;21486;51.916;8.378;2023-05-28T01:19:24;11.60;99.90
35381;DHT22;21486;51.916;8.378;2023-05-28T01:21:57;11.50;99.90
35381;DHT22;21486;51.916;8.378;2023-05-28T01:24:24;11.40;99.90
35381;DHT22;21486;51.916;8.378;2023-05-28T01:26:50;11.40;99.90
35381;DHT22;21486;51.916;8.378;2023-05-28T01:29:17;11.40;99.90
35381;DHT22;21486;51.916;8.378;2023-05-28T01:31:43;11.40;99.90
35381;DHT22;21486;51.916;8.378;2023-05-28T01:34:10;11.40;99.90
35381;DHT22;21486;51.916;8.378;2023-05-28T01:36:46;11.50;99.90
35381;DHT22;21486;51.916;8.378;2023-05-28T01:39:15;11.50;99.90
35381;DHT22;21486;51.916;8.378;2023-05-28T01:41:41;11.40;99.90
35381;DHT22;21486;51.916;8.378;2023-05-28T01:44:07;11.40;99.90
35381;DHT22;21486;51.916;8.378;2023-05-28T01:46:34;11.20;99.90
35381;DHT22;21486;51.916;8.378;2023-05-28T01:49:00;11.20;99.90
35381;DHT22;21486;51.916;8.378;2023-05-28T01:51:26;11.00;99.90
35381;DHT22;21486;51.916;8.378;2023-05-28T01:53:52;11.10;99.90
35381;DHT22;21486;51.916;8.378;2023-05-28T01:56:18;11.00;99.90
35381;DHT22;21486;51.916;8.378;2023-05-28T01:58:44;11.00;99.90
35381;DHT22;21486;51.916;8.378;2023-05-28T02:01:24;11.00;99.90
35381;DHT22;21486;51.916;8.378;2023-05-28T02:03:53;11.00;99.90
35381;DHT22;21486;51.916;8.378;2023-05-28T02:06:18;11.10;99.90
35381;DHT22;21486;51.916;8.378;2023-05-28T02:08:44;10.90;99.90
35381;DHT22;21486;51.916;8.378;2023-05-28T02:11:09;10.90;99.90
35381;DHT22;21486;51.916;8.378;2023-05-28T02:13:35;10.80;99.90
35381;DHT22;21486;51.916;8.378;2023-05-28T02:16:00;10.80;99.90
35381;DHT22;21486;51.916;8.378;2023-05-28T02:18:26;10.80;99.90
35381;DHT22;21486;51.916;8.378;2023-05-28T02:20:52;10.70;99.90
35381;DHT22;21486;51.916;8.378;2023-05-28T02:23:17;10.80;99.90
35381;DHT22;21486;51.916;8.378;2023-05-28T02:25:43;10.70;99.90
35381;DHT22;21486;51.916;8.378;2023-05-28T02:28:09;10.70;99.90
35381;DHT22;21486;51.916;8.378;2023-05-28T02:30:35;10.70;99.90
35381;DHT22;21486;51.916;8.378;2023-05-28T02:33:00;10.70;99.90
35381;DHT22;21486;51.916;8.378;2023-05-28T02:35:26;10.60;99.90
35381;DHT22;21486;51.916;8.378;2023-05-28T02:37:51;10.60;99.90
35381;DHT22;21486;51.916;8.378;2023-05-28T02:40:17;10.60;99.90
35381;DHT22;21486;51.916;8.378;2023-05-28T02:42:43;10.60;99.90
35381;DHT22;21486;51.916;8.378;2023-05-28T02:45:09;10.50;99.90
35381;DHT22;21486;51.916;8.378;2023-05-28T02:47:34;10.50;99.90
35381;DHT22;21486;51.916;8.378;2023-05-28T02:50:00;10.50;99.90
35381;DHT22;21486;51.916;8.378;2023-05-28T02:52:25;10.40;99.90
35381;DHT22;21486;51.916;8.378;2023-05-28T02:54:51;10.30;99.90
35381;DHT22;21486;51.916;8.378;2023-05-28T02:57:16;10.40;99.90
35381;DHT22;21486;51.916;8.378;2023-05-28T02:59:42;10.40;99.90
35381;DHT22;21486;51.916;8.378;2023-05-28T03:02:07;10.30;99.90
35381;DHT22;21486;51.916;8.378;2023-05-28T03:04:33;10.40;99.90
35381;DHT22;21486;51.916;8.378;2023-05-28T03:07:01;10.40;99.90
35381;DHT22;21486;51.916;8.378;2023-05-28T03:09:26;10.40;99.90
35381;DHT22;21486;51.916;8.378;2023-05-28T03:11:52;10.40;99.90
35381;DHT22;21486;51.916;8.378;2023-05-28T03:14:18;10.40;99.90
35381;DHT22;21486;51.916;8.378;2023-05-28T03:16:43;10.50;99.90
35381;DHT22;21486;51.916;8.378;2023-05-28T03:19:09;10.30;99.90
35381;DHT22;21486;51.916;8.378;2023-05-28T03:21:34;10.40;99.90
35381;DHT22;21486;51.916;8.378;2023-05-28T03:24:00;10.30;99.90
35381;DHT22;21486;51.916;8.378;2023-05-28T03:26:26;10.20;99.90
35381;DHT22;21486;51.916;8.378;2023-05-28T03:28:51;10.10;99.90
35381;DHT22;21486;51.916;8.378;2023-05-28T03:31:19;10.20;99.90
35381;DHT22;21486;51.916;8.378;2023-05-28T03:33:44;10.20;99.90
35381;DHT22;21486;51.916;8.378;2023-05-28T03:36:10;10.20;99.90
35381;DHT22;21486;51.916;8.378;2023-05-28T03:38:36;10.30;99.90
35381;DHT22;21486;51.916;8.378;2023-05-28T03:41:01;10.40;99.90
35381;DHT22;21486;51.916;8.378;2023-05-28T03:43:27;10.30;99.90
35381;DHT22;21486;51.916;8.378;2023-05-28T03:45:52;10.30;99.90
35381;DHT22;21486;51.916;8.378;2023-05-28T03:48:18;10.40;99.90
35381;DHT22;21486;51.916;8.378;2023-05-28T03:50:43;10.40;99.90
35381;DHT22;21486;51.916;8.378;2023-05-28T03:53:09;10.40;99.90
35381;DHT22;21486;51.916;8.378;2023-05-28T03:55:34;10.50;99.90
35381;DHT22;21486;51.916;8.378;2023-05-28T03:58:01;10.50;99.90
35381;DHT22;21486;51.916;8.378;2023-05-28T04:00:27;10.60;99.90
35381;DHT22;21486;51.916;8.378;2023-05-28T04:02:53;10.50;99.90
35381;DHT22;21486;51.916;8.378;2023-05-28T04:05:18;10.60;99.90
35381;DHT22;21486;51.916;8.378;2023-05-28T04:07:44;10.60;99.90
35381;DHT22;21486;51.916;8.378;2023-05-28T04:10:09;10.70;99.90
35381;DHT22;21486;51.916;8.378;2023-05-28T04:12:35;10.70;99.90
35381;DHT22;21486;51.916;8.378;2023-05-28T04:15:01;10.70;99.90
35381;DHT22;21486;51.916;8.378;2023-05-28T04:17:28;10.80;99.90
35381;DHT22;21486;51.916;8.378;2023-05-28T04:19:54;11.00;99.90
35381;DHT22;21486;51.916;8.378;2023-05-28T04:22:19;11.00;99.90
35381;DHT22;21486;51.916;8.378;2023-05-28T04:24:46;11.00;99.90
35381;DHT22;21486;51.916;8.378;2023-05-28T04:27:12;11.00;99.90
35381;DHT22;21486;51.916;8.378;2023-05-28T04:29:38;11.20;99.90
35381;DHT22;21486;51.916;8.378;2023-05-28T04:32:04;11.40;99.90
35381;DHT22;21486;51.916;8.378;2023-05-28T04:34:30;11.80;99.90
35381;DHT22;21486;51.916;8.378;2023-05-28T04:36:58;12.20;99.90
35381;DHT22;21486;51.916;8.378;2023-05-28T04:39:23;12.50;99.90
35381;DHT22;21486;51.916;8.378;2023-05-28T04:41:49;13.40;99.70
35381;DHT22;21486;51.916;8.378;2023-05-28T04:44:16;14.30;96.60
35381;DHT22;21486;51.916;8.378;2023-05-28T04:46:42;15.30;92.40
35381;DHT22;21486;51.916;8.378;2023-05-28T04:49:11;15.80;90.30
35381;DHT22;21486;51.916;8.378;2023-05-28T04:51:38;16.10;87.60
35381;DHT22;21486;51.916;8.378;2023-05-28T04:54:03;16.50;84.60
35381;DHT22;21486;51.916;8.378;2023-05-28T04:56:29;17.20;81.50
35381;DHT22;21486;51.916;8.378;2023-05-28T04:58:54;17.80;78.10
35381;DHT22;21486;51.916;8.378;2023-05-28T05:01:20;18.40;75.20
35381;DHT22;21486;51.916;8.378;2023-05-28T05:03:47;19.00;71.50
35381;DHT22;21486;51.916;8.378;2023-05-28T05:06:13;19.20;70.00
35381;DHT22;21486;51.916;8.378;2023-05-28T05:08:39;19.70;68.20
35381;DHT22;21486;51.916;8.378;2023-05-28T05:11:05;20.20;67.00
35381;DHT22;21486;51.916;8.378;2023-05-28T05:13:32;20.40;65.70
35381;DHT22;21486;51.916;8.378;2023-05-28T05:15:57;20.90;63.40
35381;DHT22;21486;51.916;8.378;2023-05-28T05:18:23;21.30;60.60
35381;DHT22;21486;51.916;8.378;2023-05-28T05:20:49;21.50;60.60
35381;DHT22;21486;51.916;8.378;2023-05-28T05:23:15;22.00;58.50
35381;DHT22;21486;51.916;8.378;2023-05-28T05:25:44;22.40;56.70
35381;DHT22;21486;51.916;8.378;2023-05-28T05:28:09;22.60;56.50
35381;DHT22;21486;51.916;8.378;2023-05-28T05:30:36;23.00;55.60
35381;DHT22;21486;51.916;8.378;2023-05-28T05:33:02;23.20;53.80
35381;DHT22;21486;51.916;8.378;2023-05-28T05:35:31;23.20;54.20
35381;DHT22;21486;51.916;8.378;2023-05-28T05:37:56;23.30;53.10
35381;DHT22;21486;51.916;8.378;2023-05-28T05:40:22;23.50;53.50
35381;DHT22;21486;51.916;8.378;2023-05-28T05:42:48;24.00;52.40
35381;DHT22;21486;51.916;8.378;2023-05-28T05:45:13;24.20;51.00
35381;DHT22;21486;51.916;8.378;2023-05-28T05:47:39;24.40;50.90
35381;DHT22;21486;51.916;8.378;2023-05-28T05:50:05;24.60;50.60
35381;DHT22;21486;51.916;8.378;2023-05-28T05:52:31;25.10;49.60
35381;DHT22;21486;51.916;8.378;2023-05-28T05:54:57;25.50;49.00
35381;DHT22;21486;51.916;8.378;2023-05-28T05:57:25;26.00;47.80
35381;DHT22;21486;51.916;8.378;2023-05-28T06:00:01;26.10;46.70
35381;DHT22;21486;51.916;8.378;2023-05-28T06:05:50;26.30;46.20
35381;DHT22;21486;51.916;8.378;2023-05-28T06:11:54;26.00;45.90
35381;DHT22;21486;51.916;8.378;2023-05-28T06:14:20;26.40;45.90
35381;DHT22;21486;51.916;8.378;2023-05-28T06:16:46;26.90;45.70
35381;DHT22;21486;51.916;8.378;2023-05-28T06:19:13;27.20;45.00
35381;DHT22;21486;51.916;8.378;2023-05-28T06:21:39;27.10;44.90
35381;DHT22;21486;51.916;8.378;2023-05-28T06:24:05;27.40;43.80
35381;DHT22;21486;51.916;8.378;2023-05-28T06:26:32;28.10;43.10
35381;DHT22;21486;51.916;8.378;2023-05-28T06:28:58;28.60;42.40
35381;DHT22;21486;51.916;8.378;2023-05-28T06:31:24;28.50;41.60
35381;DHT22;21486;51.916;8.378;2023-05-28T06:33:58;28.70;41.80
35381;DHT22;21486;51.916;8.378;2023-05-28T06:36:24;28.80;41.70
35381;DHT22;21486;51.916;8.378;2023-05-28T06:38:56;28.90;41.10
35381;DHT22;21486;51.916;8.378;2023-05-28T06:41:21;29.00;40.20
35381;DHT22;21486;51.916;8.378;2023-05-28T06:43:47;28.60;40.00
35381;DHT22;21486;51.916;8.378;2023-05-28T06:46:13;28.60;40.70
35381;DHT22;21486;51.916;8.378;2023-05-28T06:48:39;28.90;39.60
35381;DHT22;21486;51.916;8.378;2023-05-28T06:51:05;29.20;41.10
35381;DHT22;21486;51.916;8.378;2023-05-28T06:53:30;29.70;39.60
35381;DHT22;21486;51.916;8.378;2023-05-28T06:56:06;30.00;39.00
35381;DHT22;21486;51.916;8.378;2023-05-28T07:01:17;28.80;39.30
35381;DHT22;21486;51.916;8.378;2023-05-28T07:03:43;28.80;38.80
35381;DHT22;21486;51.916;8.378;2023-05-28T07:06:09;28.90;38.80
35381;DHT22;21486;51.916;8.378;2023-05-28T07:08:35;28.80;40.00
35381;DHT22;21486;51.916;8.378;2023-05-28T07:11:01;29.30;38.20
35381;DHT22;21486;51.916;8.378;2023-05-28T07:13:26;29.90;38.20
35381;DHT22;21486;51.916;8.378;2023-05-28T07:15:52;30.90;36.90
35381;DHT22;21486;51.916;8.378;2023-05-28T07:18:17;30.70;36.30
35381;DHT22;21486;51.916;8.378;2023-05-28T07:20:43;30.60;36.60
35381;DHT22;21486;51.916;8.378;2023-05-28T07:23:08;30.50;37.10
35381;DHT22;21486;51.916;8.378;2023-05-28T07:25:37;30.50;36.40
35381;DHT22;21486;51.916;8.378;2023-05-28T07:28:02;30.70;36.00
35381;DHT22;21486;51.916;8.378;2023-05-28T07:30:28;30.60;36.80
35381;DHT22;21486;51.916;8.378;2023-05-28T07:32:54;30.40;35.20
35381;DHT22;21486;51.916;8.378;2023-05-28T07:35:19;30.40;36.30
35381;DHT22;21486;51.916;8.378;2023-05-28T07:37:51;30.30;35.50
35381;DHT22;21486;51.916;8.378;2023-05-28T07:40:16;29.40;36.60
35381;DHT22;21486;51.916;8.378;2023-05-28T07:42:42;29.10;37.10
35381;DHT22;21486;51.916;8.378;2023-05-28T07:45:08;29.30;36.70
35381;DHT22;21486;51.916;8.378;2023-05-28T07:47:34;29.90;35.90
35381;DHT22;21486;51.916;8.378;2023-05-28T07:49:59;30.20;36.00
35381;DHT22;21486;51.916;8.378;2023-05-28T07:52:25;29.70;36.30
35381;DHT22;21486;51.916;8.378;2023-05-28T07:54:58;30.10;36.90
35381;DHT22;21486;51.916;8.378;2023-05-28T07:57:24;30.30;36.00
35381;DHT22;21486;51.916;8.378;2023-05-28T07:59:50;30.50;36.50
35381;DHT22;21486;51.916;8.378;2023-05-28T08:02:16;30.60;36.40
35381;DHT22;21486;51.916;8.378;2023-05-28T08:07:35;30.20;36.00
35381;DHT22;21486;51.916;8.378;2023-05-28T08:10:24;30.20;37.20
35381;DHT22;21486;51.916;8.378;2023-05-28T08:16:12;30.00;36.20
35381;DHT22;21486;51.916;8.378;2023-05-28T08:18:38;29.40;36.40
35381;DHT22;21486;51.916;8.378;2023-05-28T08:24:16;28.10;36.50
35381;DHT22;21486;51.916;8.378;2023-05-28T08:26:52;27.60;38.10
35381;DHT22;21486;51.916;8.378;2023-05-28T08:29:18;27.50;38.10
35381;DHT22;21486;51.916;8.378;2023-05-28T08:31:44;28.00;38.60
35381;DHT22;21486;51.916;8.378;2023-05-28T08:34:10;28.30;36.90
35381;DHT22;21486;51.916;8.378;2023-05-28T08:36:36;28.30;37.40
35381;DHT22;21486;51.916;8.378;2023-05-28T08:39:32;28.20;37.30
35381;DHT22;21486;51.916;8.378;2023-05-28T08:42:17;28.80;37.00
35381;DHT22;21486;51.916;8.378;2023-05-28T08:44:43;29.00;34.40
35381;DHT22;21486;51.916;8.378;2023-05-28T08:47:09;28.50;35.40
35381;DHT22;21486;51.916;8.378;2023-05-28T08:49:53;28.30;35.70
35381;DHT22;21486;51.916;8.378;2023-05-28T08:52:22;28.20;37.10
35381;DHT22;21486;51.916;8.378;2023-05-28T08:54:49;27.70;37.40
35381;DHT22;21486;51.916;8.378;2023-05-28T08:57:15;27.30;37.40
35381;DHT22;21486;51.916;8.378;2023-05-28T08:59:42;27.50;37.40
35381;DHT22;21486;51.916;8.378;2023-05-28T09:02:09;27.90;37.50
35381;DHT22;21486;51.916;8.378;2023-05-28T09:04:36;28.00;36.00
35381;DHT22;21486;51.916;8.378;2023-05-28T09:07:02;28.40;36.80
35381;DHT22;21486;51.916;8.378;2023-05-28T09:09:28;28.60;35.50
35381;DHT22;21486;51.916;8.378;2023-05-28T09:12:03;28.70;36.90
35381;DHT22;21486;51.916;8.378;2023-05-28T09:14:37;29.40;35.60
35381;DHT22;21486;51.916;8.378;2023-05-28T09:17:04;29.30;35.50
35381;DHT22;21486;51.916;8.378;2023-05-28T09:19:29;29.80;34.70
35381;DHT22;21486;51.916;8.378;2023-05-28T09:21:56;29.70;35.20
35381;DHT22;21486;51.916;8.378;2023-05-28T09:24:29;30.20;35.50
35381;DHT22;21486;51.916;8.378;2023-05-28T09:26:55;30.30;35.20
35381;DHT22;21486;51.916;8.378;2023-05-28T09:29:23;30.70;33.00
35381;DHT22;21486;51.916;8.378;2023-05-28T09:32:00;31.00;34.00
35381;DHT22;21486;51.916;8.378;2023-05-28T09:34:27;31.10;32.90
35381;DHT22;21486;51.916;8.378;2023-05-28T09:36:55;30.60;33.00
35381;DHT22;21486;51.916;8.378;2023-05-28T09:39:24;30.70;33.30
35381;DHT22;21486;51.916;8.378;2023-05-28T09:42:00;30.90;32.60
35381;DHT22;21486;51.916;8.378;2023-05-28T09:44:32;30.80;32.80
35381;DHT22;21486;51.916;8.378;2023-05-28T09:46:58;30.60;33.10
35381;DHT22;21486;51.916;8.378;2023-05-28T09:49:23;30.20;33.70
35381;DHT22;21486;51.916;8.378;2023-05-28T09:51:52;30.30;34.50
35381;DHT22;21486;51.916;8.378;2023-05-28T09:54:20;31.20;33.60
35381;DHT22;21486;51.916;8.378;2023-05-28T09:56:47;30.90;33.50
35381;DHT22;21486;51.916;8.378;2023-05-28T09:59:17;31.00;34.30
35381;DHT22;21486;51.916;8.378;2023-05-28T10:01:55;31.40;32.80
35381;DHT22;21486;51.916;8.378;2023-05-28T10:04:27;31.70;32.90
35381;DHT22;21486;51.916;8.378;2023-05-28T10:06:54;31.90;31.80
35381;DHT22;21486;51.916;8.378;2023-05-28T10:09:21;31.40;32.40
35381;DHT22;21486;51.916;8.378;2023-05-28T10:11:57;31.10;32.70
35381;DHT22;21486;51.916;8.378;2023-05-28T10:14:30;30.80;33.30
35381;DHT22;21486;51.916;8.378;2023-05-28T10:16:56;30.30;33.70
35381;DHT22;21486;51.916;8.378;2023-05-28T10:19:22;30.50;34.40
35381;DHT22;21486;51.916;8.378;2023-05-28T10:21:49;30.90;33.40
35381;DHT22;21486;51.916;8.378;2023-05-28T10:24:15;30.40;33.40
35381;DHT22;21486;51.916;8.378;2023-05-28T10:26:41;30.90;33.80
35381;DHT22;21486;51.916;8.378;2023-05-28T10:29:07;30.80;34.00
35381;DHT22;21486;51.916;8.378;2023-05-28T10:31:33;30.60;34.00
35381;DHT22;21486;51.916;8.378;2023-05-28T10:33:58;30.50;34.70
35381;DHT22;21486;51.916;8.378;2023-05-28T10:36:24;30.80;32.80
35381;DHT22;21486;51.916;8.378;2023-05-28T10:41:20;30.90;33.40
35381;DHT22;21486;51.916;8.378;2023-05-28T10:43:50;30.50;33.80
35381;DHT22;21486;51.916;8.378;2023-05-28T10:46:27;30.40;35.70
35381;DHT22;21486;51.916;8.378;2023-05-28T10:49:16;30.10;35.10
35381;DHT22;21486;51.916;8.378;2023-05-28T10:59:58;28.60;37.50
35381;DHT22;21486;51.916;8.378;2023-05-28T11:02:28;29.20;38.10
35381;DHT22;21486;51.916;8.378;2023-05-28T11:05:00;30.10;35.30
35381;DHT22;21486;51.916;8.378;2023-05-28T11:09:57;30.60;34.10
35381;DHT22;21486;51.916;8.378;2023-05-28T11:12:26;30.30;34.70
35381;DHT22;21486;51.916;8.378;2023-05-28T11:14:52;29.40;36.20
35381;DHT22;21486;51.916;8.378;2023-05-28T11:17:18;29.50;36.50
35381;DHT22;21486;51.916;8.378;2023-05-28T11:19:45;30.10;36.60
35381;DHT22;21486;51.916;8.378;2023-05-28T11:22:12;30.40;36.30
35381;DHT22;21486;51.916;8.378;2023-05-28T11:27:21;30.80;36.60
35381;DHT22;21486;51.916;8.378;2023-05-28T11:29:52;30.40;39.10
35381;DHT22;21486;51.916;8.378;2023-05-28T11:32:18;28.40;37.10
35381;DHT22;21486;51.916;8.378;2023-05-28T11:34:47;29.30;37.90
35381;DHT22;21486;51.916;8.378;2023-05-28T11:37:13;29.40;37.90
35381;DHT22;21486;51.916;8.378;2023-05-28T11:39:51;29.80;37.70
35381;DHT22;21486;51.916;8.378;2023-05-28T11:42:20;29.90;36.60
35381;DHT22;21486;51.916;8.378;2023-05-28T11:44:47;30.10;36.60
35381;DHT22;21486;51.916;8.378;2023-05-28T11:47:13;30.10;36.90
35381;DHT22;21486;51.916;8.378;2023-05-28T11:49:41;29.80;37.60
35381;DHT22;21486;51.916;8.378;2023-05-28T11:52:11;29.80;36.80
35381;DHT22;21486;51.916;8.378;2023-05-28T11:54:37;29.70;38.30
35381;DHT22;21486;51.916;8.378;2023-05-28T11:57:03;30.20;37.40
35381;DHT22;21486;51.916;8.378;2023-05-28T11:59:29;30.40;37.20
35381;DHT22;21486;51.916;8.378;2023-05-28T12:04:36;30.40;36.60
35381;DHT22;21486;51.916;8.378;2023-05-28T12:07:01;29.60;38.20
35381;DHT22;21486;51.916;8.378;2023-05-28T12:09:27;28.70;37.70
35381;DHT22;21486;51.916;8.378;2023-05-28T12:12:06;27.80;38.90
35381;DHT22;21486;51.916;8.378;2023-05-28T12:14:34;27.40;39.40
35381;DHT22;21486;51.916;8.378;2023-05-28T12:17:07;26.90;40.70
35381;DHT22;21486;51.916;8.378;2023-05-28T12:19:37;26.60;40.90
35381;DHT22;21486;51.916;8.378;2023-05-28T12:22:12;26.20;42.20
35381;DHT22;21486;51.916;8.378;2023-05-28T12:24:49;26.00;42.30
35381;DHT22;21486;51.916;8.378;2023-05-28T12:27:16;26.00;43.50
35381;DHT22;21486;51.916;8.378;2023-05-28T12:29:43;26.30;42.80
35381;DHT22;21486;51.916;8.378;2023-05-28T12:32:09;26.40;41.20
35381;DHT22;21486;51.916;8.378;2023-05-28T12:34:34;26.60;42.60
35381;DHT22;21486;51.916;8.378;2023-05-28T12:37:00;26.80;41.30
35381;DHT22;21486;51.916;8.378;2023-05-28T12:39:25;26.80;41.80
35381;DHT22;21486;51.916;8.378;2023-05-28T12:41:51;26.60;43.30
35381;DHT22;21486;51.916;8.378;2023-05-28T12:44:16;26.50;42.40
35381;DHT22;21486;51.916;8.378;2023-05-28T12:46:42;26.60;43.30
35381;DHT22;21486;51.916;8.378;2023-05-28T12:49:08;26.50;42.80
35381;DHT22;21486;51.916;8.378;2023-05-28T12:51:33;26.20;41.30
35381;DHT22;21486;51.916;8.378;2023-05-28T12:53:59;26.10;42.40
35381;DHT22;21486;51.916;8.378;2023-05-28T12:56:27;26.10;42.10
35381;DHT22;21486;51.916;8.378;2023-05-28T12:58:53;26.10;42.50
35381;DHT22;21486;51.916;8.378;2023-05-28T13:01:18;26.10;42.60
35381;DHT22;21486;51.916;8.378;2023-05-28T13:03:44;25.80;42.50
35381;DHT22;21486;51.916;8.378;2023-05-28T13:06:09;25.70;42.90
35381;DHT22;21486;51.916;8.378;2023-05-28T13:08:37;25.70;42.10
35381;DHT22;21486;51.916;8.378;2023-05-28T13:11:02;25.60;43.90
35381;DHT22;21486;51.916;8.378;2023-05-28T13:13:28;25.60;44.30
35381;DHT22;21486;51.916;8.378;2023-05-28T13:15:53;25.50;43.40
35381;DHT22;21486;51.916;8.378;2023-05-28T13:18:19;25.60;43.00
35381;DHT22;21486;51.916;8.378;2023-05-28T13:20:45;25.50;43.80
35381;DHT22;21486;51.916;8.378;2023-05-28T13:23:11;25.40;43.20
35381;DHT22;21486;51.916;8.378;2023-05-28T13:25:36;25.40;43.40
35381;DHT22;21486;51.916;8.378;2023-05-28T13:28:03;25.30;46.10
35381;DHT22;21486;51.916;8.378;2023-05-28T13:30:29;25.40;45.40
35381;DHT22;21486;51.916;8.378;2023-05-28T13:32:54;25.30;44.80
35381;DHT22;21486;51.916;8.378;2023-05-28T13:35:20;25.00;43.60
35381;DHT22;21486;51.916;8.378;2023-05-28T13:37:46;25.00;45.10
35381;DHT22;21486;51.916;8.378;2023-05-28T13:40:12;24.90;44.10
35381;DHT22;21486;51.916;8.378;2023-05-28T13:42:39;24.90;45.20
35381;DHT22;21486;51.916;8.378;2023-05-28T13:45:06;24.80;43.90
35381;DHT22;21486;51.916;8.378;2023-05-28T13:47:32;24.50;43.30
35381;DHT22;21486;51.916;8.378;2023-05-28T13:49:58;24.50;45.50
35381;DHT22;21486;51.916;8.378;2023-05-28T13:52:24;24.70;44.20
35381;DHT22;21486;51.916;8.378;2023-05-28T13:54:50;24.60;45.00
35381;DHT22;21486;51.916;8.378;2023-05-28T13:57:16;24.70;44.60
35381;DHT22;21486;51.916;8.378;2023-05-28T13:59:44;24.90;46.20
35381;DHT22;21486;51.916;8.378;2023-05-28T14:02:10;25.00;44.40
35381;DHT22;21486;51.916;8.378;2023-05-28T14:04:35;24.90;45.40
35381;DHT22;21486;51.916;8.378;2023-05-28T14:07:01;25.00;45.20
35381;DHT22;21486;51.916;8.378;2023-05-28T14:09:27;25.00;43.90
35381;DHT22;21486;51.916;8.378;2023-05-28T14:11:52;25.10;43.50
35381;DHT22;21486;51.916;8.378;2023-05-28T14:14:18;25.10;42.40
35381;DHT22;21486;51.916;8.378;2023-05-28T14:16:43;25.10;44.30
35381;DHT22;21486;51.916;8.378;2023-05-28T14:19:09;24.90;45.70
35381;DHT22;21486;51.916;8.378;2023-05-28T14:21:34;24.80;43.90
35381;DHT22;21486;51.916;8.378;2023-05-28T14:24:00;24.80;43.90
35381;DHT22;21486;51.916;8.378;2023-05-28T14:26:26;24.60;46.40
35381;DHT22;21486;51.916;8.378;2023-05-28T14:28:51;24.70;45.40
35381;DHT22;21486;51.916;8.378;2023-05-28T14:31:17;24.80;45.10
35381;DHT22;21486;51.916;8.378;2023-05-28T14:33:43;24.80;44.20
35381;DHT22;21486;51.916;8.378;2023-05-28T14:36:08;24.80;44.90
35381;DHT22;21486;51.916;8.378;2023-05-28T14:38:34;24.70;42.80
35381;DHT22;21486;51.916;8.378;2023-05-28T14:40:59;24.60;43.80
35381;DHT22;21486;51.916;8.378;2023-05-28T14:43:25;24.70;44.60
35381;DHT22;21486;51.916;8.378;2023-05-28T14:45:50;24.60;43.00
35381;DHT22;21486;51.916;8.378;2023-05-28T14:48:16;24.70;44.10
35381;DHT22;21486;51.916;8.378;2023-05-28T14:50:41;24.60;42.40
35381;DHT22;21486;51.916;8.378;2023-05-28T14:53:07;24.50;44.90
35381;DHT22;21486;51.916;8.378;2023-05-28T14:55:33;24.70;43.10
35381;DHT22;21486;51.916;8.378;2023-05-28T14:57:58;24.50;42.80
35381;DHT22;21486;51.916;8.378;2023-05-28T15:00:24;24.70;43.80
35381;DHT22;21486;51.916;8.378;2023-05-28T15:02:50;24.60;45.20
35381;DHT22;21486;51.916;8.378;2023-05-28T15:05:16;24.60;43.70
35381;DHT22;21486;51.916;8.378;2023-05-28T15:07:41;24.70;44.20
35381;DHT22;21486;51.916;8.378;2023-05-28T15:10:07;24.70;43.60
35381;DHT22;21486;51.916;8.378;2023-05-28T15:12:34;24.70;43.90
35381;DHT22;21486;51.916;8.378;2023-05-28T15:14:59;24.80;43.70
35381;DHT22;21486;51.916;8.378;2023-05-28T15:17:25;24.70;44.10
35381;DHT22;21486;51.916;8.378;2023-05-28T15:19:50;24.80;43.00
35381;DHT22;21486;51.916;8.378;2023-05-28T15:22:16;24.70;43.90
35381;DHT22;21486;51.916;8.378;2023-05-28T15:24:42;24.50;44.70
35381;DHT22;21486;51.916;8.378;2023-05-28T15:27:08;24.50;45.00
35381;DHT22;21486;51.916;8.378;2023-05-28T15:29:35;24.40;47.30
35381;DHT22;21486;51.916;8.378;2023-05-28T15:32:03;24.50;46.50
35381;DHT22;21486;51.916;8.378;2023-05-28T15:34:29;24.60;46.10
35381;DHT22;21486;51.916;8.378;2023-05-28T15:36:55;24.60;46.60
35381;DHT22;21486;51.916;8.378;2023-05-28T15:39:21;24.40;46.10
35381;DHT22;21486;51.916;8.378;2023-05-28T15:41:47;24.30;46.60
35381;DHT22;21486;51.916;8.378;2023-05-28T15:44:13;24.30;46.90
35381;DHT22;21486;51.916;8.378;2023-05-28T15:46:39;24.30;46.00
35381;DHT22;21486;51.916;8.378;2023-05-28T15:49:05;24.00;46.30
35381;DHT22;21486;51.916;8.378;2023-05-28T15:51:31;24.00;48.60
35381;DHT22;21486;51.916;8.378;2023-05-28T15:53:57;24.20;48.30
35381;DHT22;21486;51.916;8.378;2023-05-28T15:56:23;24.30;46.70
35381;DHT22;21486;51.916;8.378;2023-05-28T15:58:49;24.20;47.10
35381;DHT22;21486;51.916;8.378;2023-05-28T16:01:16;24.10;48.40
35381;DHT22;21486;51.916;8.378;2023-05-28T16:03:42;24.20;48.80
35381;DHT22;21486;51.916;8.378;2023-05-28T16:06:08;24.10;48.30
35381;DHT22;21486;51.916;8.378;2023-05-28T16:08:34;24.10;48.30